createdAt,value
2019-03-09T00:01:57.532Z,11.90
2019-03-09T00:04:28.073Z,11.90
2019-03-09T00:06:58.816Z,11.90
2019-03-09T00:09:30.310Z,11.90
2019-03-09T00:12:01.241Z,11.90
2019-03-09T00:14:31.410Z,11.80
2019-03-09T00:17:01.570Z,11.80
2019-03-09T00:19:34.066Z,11.80
2019-03-09T00:22:05.256Z,11.90
2019-03-09T00:25:05.132Z,11.80
2019-03-09T00:28:01.894Z,11.80
2019-03-09T00:30:43.826Z,11.80
2019-03-09T00:33:14.378Z,11.80
2019-03-09T00:35:45.020Z,11.80
2019-03-09T00:38:15.775Z,11.80
2019-03-09T00:40:46.703Z,11.80
2019-03-09T00:43:16.733Z,11.80
2019-03-09T00:45:47.520Z,11.80
2019-03-09T00:48:18.459Z,11.80
2019-03-09T00:50:49.200Z,11.80
2019-03-09T00:53:19.867Z,11.80
2019-03-09T00:55:50.644Z,11.80
2019-03-09T00:58:21.224Z,11.80
2019-03-09T01:00:51.975Z,11.80
2019-03-09T01:03:22.504Z,11.80
2019-03-09T01:05:53.594Z,11.70
2019-03-09T01:08:24.332Z,11.80
2019-03-09T01:10:55.253Z,11.80
2019-03-09T01:13:25.766Z,11.70
2019-03-09T01:15:56.655Z,11.70
2019-03-09T01:18:27.738Z,11.70
2019-03-09T01:20:58.562Z,11.70
2019-03-09T01:23:29.204Z,11.70
2019-03-09T01:25:59.825Z,11.70
2019-03-09T01:28:30.368Z,11.70
2019-03-09T01:31:01.388Z,11.70
2019-03-09T01:33:31.990Z,11.70
2019-03-09T01:36:02.597Z,11.70
2019-03-09T01:38:32.931Z,11.70
2019-03-09T01:41:03.230Z,11.70
2019-03-09T01:43:34.513Z,11.70
2019-03-09T01:46:05.392Z,11.70
2019-03-09T01:48:36.106Z,11.60
2019-03-09T01:51:06.665Z,11.70
2019-03-09T01:53:37.388Z,11.70
2019-03-09T01:56:08.327Z,11.60
2019-03-09T01:58:38.979Z,11.70
2019-03-09T02:01:09.682Z,11.60
2019-03-09T02:03:40.278Z,11.60
2019-03-09T02:06:11.032Z,11.70
2019-03-09T02:08:41.858Z,11.60
2019-03-09T02:11:12.333Z,11.60
2019-03-09T02:13:43.053Z,11.60
2019-03-09T02:16:13.841Z,11.60
2019-03-09T02:18:44.637Z,11.60
2019-03-09T02:21:15.253Z,11.60
2019-03-09T02:23:45.968Z,11.60
2019-03-09T02:26:16.617Z,11.60
2019-03-09T02:28:47.277Z,11.60
2019-03-09T02:31:17.344Z,11.60
2019-03-09T02:33:47.471Z,11.60
2019-03-09T02:36:17.489Z,11.60
2019-03-09T02:38:55.783Z,11.60
2019-03-09T02:41:26.925Z,11.60
2019-03-09T02:43:57.597Z,11.60
2019-03-09T02:46:28.621Z,11.60
2019-03-09T02:48:59.301Z,11.60
2019-03-09T02:51:30.046Z,11.60
2019-03-09T02:54:00.186Z,11.60
2019-03-09T02:56:31.006Z,11.60
2019-03-09T02:59:01.899Z,11.60
2019-03-09T03:01:42.233Z,11.60
2019-03-09T03:04:13.116Z,11.60
2019-03-09T03:06:43.823Z,11.50
2019-03-09T03:09:14.525Z,11.50
2019-03-09T03:11:45.396Z,11.60
2019-03-09T03:14:16.245Z,11.50
2019-03-09T03:16:46.821Z,11.60
2019-03-09T03:19:18.200Z,11.50
2019-03-09T03:21:48.884Z,11.50
2019-03-09T03:24:19.398Z,11.50
2019-03-09T03:26:50.253Z,11.60
2019-03-09T03:29:21.082Z,11.50
2019-03-09T03:31:51.725Z,11.50
2019-03-09T03:34:22.502Z,11.50
2019-03-09T03:36:52.617Z,11.60
2019-03-09T03:39:22.630Z,11.60
2019-03-09T03:41:52.741Z,11.60
2019-03-09T03:44:22.910Z,11.60
2019-03-09T03:46:52.674Z,11.60
2019-03-09T03:49:22.840Z,11.70
2019-03-09T03:51:52.707Z,11.70
2019-03-09T03:54:22.835Z,11.70
2019-03-09T03:56:52.782Z,11.70
2019-03-09T03:59:22.933Z,11.80
2019-03-09T04:01:52.992Z,11.80
2019-03-09T04:04:23.056Z,11.80
2019-03-09T04:06:53.146Z,11.90
2019-03-09T04:09:23.328Z,11.90
2019-03-09T04:11:53.387Z,11.90
2019-03-09T04:14:23.651Z,12.00
2019-03-09T04:16:53.697Z,12.00
2019-03-09T04:19:23.715Z,12.00
2019-03-09T04:21:53.630Z,12.00
2019-03-09T04:24:23.558Z,12.10
2019-03-09T04:26:53.664Z,12.10
2019-03-09T04:29:23.740Z,12.10
2019-03-09T04:31:53.688Z,12.10
2019-03-09T04:34:23.858Z,12.20
2019-03-09T04:37:00.007Z,12.20
2019-03-09T04:39:30.149Z,12.20
2019-03-09T04:42:00.220Z,12.20
2019-03-09T04:44:30.390Z,12.20
2019-03-09T04:47:00.397Z,12.20
2019-03-09T04:49:30.549Z,12.30
2019-03-09T04:52:00.501Z,12.30
2019-03-09T04:54:30.507Z,12.30
2019-03-09T04:57:00.576Z,12.30
2019-03-09T04:59:30.648Z,12.30
2019-03-09T05:02:00.833Z,12.30
2019-03-09T05:04:53.708Z,12.30
2019-03-09T05:08:05.729Z,12.40
2019-03-09T05:11:07.285Z,12.40
2019-03-09T05:13:51.641Z,12.40
2019-03-09T05:16:21.789Z,12.40
2019-03-09T05:18:51.961Z,12.40
2019-03-09T05:21:22.070Z,12.40
2019-03-09T05:23:52.104Z,12.30
2019-03-09T05:26:22.173Z,12.30
2019-03-09T05:28:52.244Z,12.30
2019-03-09T05:31:22.404Z,12.30
2019-03-09T05:33:52.495Z,12.30
2019-03-09T05:36:22.647Z,12.30
2019-03-09T05:38:52.715Z,12.20
2019-03-09T05:41:22.802Z,12.20
2019-03-09T05:43:52.856Z,12.20
2019-03-09T05:46:22.858Z,12.20
2019-03-09T05:48:52.805Z,12.10
2019-03-09T05:51:22.948Z,12.10
2019-03-09T05:53:53.033Z,12.10
2019-03-09T05:56:23.101Z,12.10
2019-03-09T05:58:53.160Z,12.00
2019-03-09T06:01:23.377Z,12.00
2019-03-09T06:03:53.404Z,12.00
2019-03-09T06:06:23.565Z,12.00
2019-03-09T06:08:53.657Z,12.00
2019-03-09T06:11:23.904Z,11.90
2019-03-09T06:13:53.893Z,11.90
2019-03-09T06:16:24.249Z,11.90
2019-03-09T06:18:54.324Z,11.90
2019-03-09T06:21:24.522Z,11.90
2019-03-09T06:23:54.361Z,11.90
2019-03-09T06:26:24.542Z,11.90
2019-03-09T06:28:54.533Z,11.80
2019-03-09T06:31:24.666Z,11.80
2019-03-09T06:33:56.293Z,11.80
2019-03-09T06:37:00.358Z,11.80
2019-03-09T06:39:32.894Z,11.80
2019-03-09T06:42:24.398Z,11.80
2019-03-09T06:44:54.505Z,11.80
2019-03-09T06:47:24.607Z,11.80
2019-03-09T06:49:54.640Z,11.80
2019-03-09T06:52:24.801Z,11.80
2019-03-09T06:54:54.588Z,11.70
2019-03-09T06:57:24.673Z,11.80
2019-03-09T06:59:54.614Z,11.70
2019-03-09T07:02:24.685Z,11.70
2019-03-09T07:04:54.681Z,11.70
2019-03-09T07:07:24.706Z,11.70
2019-03-09T07:09:54.806Z,11.70
2019-03-09T07:12:24.987Z,11.70
2019-03-09T07:15:30.254Z,11.70
2019-03-09T07:18:14.584Z,11.70
2019-03-09T07:20:44.741Z,11.70
2019-03-09T07:23:14.727Z,11.60
2019-03-09T07:25:44.750Z,11.60
2019-03-09T07:28:15.981Z,11.60
2019-03-09T07:30:46.009Z,11.60
2019-03-09T07:33:16.176Z,11.60
2019-03-09T07:35:46.071Z,11.60
2019-03-09T07:38:15.748Z,11.60
2019-03-09T07:40:45.410Z,11.60
2019-03-09T07:43:15.093Z,11.60
2019-03-09T07:45:44.733Z,11.60
2019-03-09T07:48:14.421Z,11.60
2019-03-09T07:50:44.512Z,11.60
2019-03-09T07:53:14.629Z,11.60
2019-03-09T07:55:44.702Z,11.60
2019-03-09T07:58:14.765Z,11.50
2019-03-09T08:00:44.930Z,11.50
2019-03-09T08:03:14.913Z,11.50
2019-03-09T08:05:45.065Z,11.50
2019-03-09T08:08:15.076Z,11.50
2019-03-09T08:10:45.113Z,11.50
2019-03-09T08:13:15.181Z,11.50
2019-03-09T08:15:45.387Z,11.60
2019-03-09T08:18:15.424Z,11.50
2019-03-09T08:20:45.589Z,11.50
2019-03-09T08:23:15.558Z,11.50
2019-03-09T08:25:45.713Z,11.50
2019-03-09T08:28:16.622Z,11.50
2019-03-09T08:30:46.684Z,11.50
2019-03-09T08:33:16.852Z,11.50
2019-03-09T08:35:46.971Z,11.50
2019-03-09T08:38:16.934Z,11.50
2019-03-09T08:40:46.982Z,11.50
2019-03-09T08:43:17.021Z,11.50
2019-03-09T08:45:47.105Z,11.50
2019-03-09T08:48:17.153Z,11.50
2019-03-09T08:50:47.317Z,11.50
2019-03-09T08:53:17.334Z,11.50
2019-03-09T08:55:47.461Z,11.50
2019-03-09T08:58:17.622Z,11.50
2019-03-09T09:00:47.700Z,11.50
2019-03-09T09:03:17.563Z,11.50
2019-03-09T09:05:47.638Z,11.50
2019-03-09T09:08:17.625Z,11.50
2019-03-09T09:10:47.772Z,11.50
2019-03-09T09:13:17.745Z,11.50
2019-03-09T09:15:47.925Z,11.50
2019-03-09T09:18:18.067Z,11.50
2019-03-09T09:20:48.144Z,11.50
2019-03-09T09:23:18.213Z,11.50
2019-03-09T09:25:48.425Z,11.50
2019-03-09T09:28:18.469Z,11.50
2019-03-09T09:30:48.618Z,11.50
2019-03-09T09:33:18.783Z,11.50
2019-03-09T09:35:48.801Z,11.50
2019-03-09T09:38:18.853Z,11.50
2019-03-09T09:40:48.893Z,11.50
2019-03-09T09:43:18.976Z,11.50
2019-03-09T09:45:49.138Z,11.50
2019-03-09T09:48:19.112Z,11.50
2019-03-09T09:50:49.178Z,11.50
2019-03-09T09:53:19.266Z,11.50
2019-03-09T09:55:49.329Z,11.50
2019-03-09T09:58:19.481Z,11.50
2019-03-09T10:00:49.545Z,11.50
2019-03-09T10:03:19.616Z,11.50
2019-03-09T10:05:49.805Z,11.50
2019-03-09T10:08:19.789Z,11.50
2019-03-09T10:10:49.922Z,11.50
2019-03-09T10:13:19.901Z,11.50
2019-03-09T10:15:50.005Z,11.50
2019-03-09T10:18:20.103Z,11.50
2019-03-09T10:20:50.178Z,11.50
2019-03-09T10:23:20.308Z,11.50
2019-03-09T10:25:50.289Z,11.50
2019-03-09T10:28:20.348Z,11.50
2019-03-09T10:30:50.716Z,11.50
2019-03-09T10:33:20.893Z,11.50
2019-03-09T10:35:50.893Z,11.50
2019-03-09T10:38:21.020Z,11.50
2019-03-09T10:40:51.104Z,11.50
2019-03-09T10:43:21.193Z,11.50
2019-03-09T10:45:51.243Z,11.50
2019-03-09T10:48:21.446Z,11.50
2019-03-09T10:50:51.488Z,11.50
2019-03-09T10:53:21.637Z,11.50
2019-03-09T10:55:51.625Z,11.50
2019-03-09T10:58:21.773Z,11.50
2019-03-09T11:00:51.850Z,11.50
2019-03-09T11:03:21.944Z,11.50
2019-03-09T11:05:51.998Z,11.50
2019-03-09T11:08:22.176Z,11.50
2019-03-09T11:10:52.161Z,11.50
2019-03-09T11:13:22.289Z,11.50
2019-03-09T11:15:52.365Z,11.50
2019-03-09T11:18:22.453Z,11.50
2019-03-09T11:20:52.493Z,11.50
2019-03-09T11:23:22.751Z,11.50
2019-03-09T11:25:52.833Z,11.50
2019-03-09T11:28:22.948Z,11.50
2019-03-09T11:30:53.014Z,11.50
2019-03-09T11:33:23.174Z,11.50
2019-03-09T11:35:53.152Z,11.50
2019-03-09T11:38:23.074Z,11.50
2019-03-09T11:40:57.644Z,11.50
2019-03-09T11:43:24.701Z,11.60
2019-03-09T11:45:54.822Z,11.60
2019-03-09T11:48:24.986Z,11.60
2019-03-09T11:50:54.998Z,11.60
2019-03-09T11:53:25.017Z,11.70
2019-03-09T11:55:55.000Z,11.70
2019-03-09T11:58:25.148Z,11.70
2019-03-09T12:00:55.321Z,11.80
2019-03-09T12:03:25.398Z,11.80
2019-03-09T12:05:55.502Z,11.80
2019-03-09T12:08:25.565Z,11.90
2019-03-09T12:10:55.636Z,11.90
2019-03-09T12:13:25.705Z,11.90
2019-03-09T12:15:55.744Z,11.90
2019-03-09T12:18:25.694Z,12.00
2019-03-09T12:20:55.682Z,12.00
2019-03-09T12:23:26.742Z,12.00
2019-03-09T12:25:56.878Z,12.00
2019-03-09T12:28:26.689Z,12.00
2019-03-09T12:30:56.809Z,12.10
2019-03-09T12:33:26.796Z,12.10
2019-03-09T12:35:57.002Z,12.10
2019-03-09T12:38:27.130Z,12.10
2019-03-09T12:40:57.218Z,12.20
2019-03-09T12:43:27.158Z,12.20
2019-03-09T12:45:57.234Z,12.20
2019-03-09T12:48:27.293Z,12.20
2019-03-09T12:50:57.481Z,12.20
2019-03-09T12:53:27.515Z,12.20
2019-03-09T12:55:57.708Z,12.30
2019-03-09T12:58:27.802Z,12.30
2019-03-09T13:00:57.957Z,12.30
2019-03-09T13:03:28.024Z,12.30
2019-03-09T13:05:58.173Z,12.30
2019-03-09T13:08:28.188Z,12.30
2019-03-09T13:10:58.101Z,12.30
2019-03-09T13:13:28.122Z,12.30
2019-03-09T13:15:59.002Z,12.30
2019-03-09T13:18:30.254Z,12.30
2019-03-09T13:21:00.333Z,12.30
2019-03-09T13:23:30.404Z,12.30
2019-03-09T13:26:00.360Z,12.30
2019-03-09T13:28:30.340Z,12.30
2019-03-09T13:31:00.492Z,12.20
2019-03-09T13:33:30.305Z,12.20
2019-03-09T13:36:00.454Z,12.20
2019-03-09T13:38:30.406Z,12.20
2019-03-09T13:41:00.565Z,12.10
2019-03-09T13:43:30.636Z,12.10
2019-03-09T13:46:02.412Z,12.10
2019-03-09T13:48:32.617Z,12.10
2019-03-09T13:51:02.721Z,12.10
2019-03-09T13:53:32.790Z,12.00
2019-03-09T13:56:03.654Z,12.00
2019-03-09T13:58:34.396Z,12.00
2019-03-09T14:01:04.608Z,12.00
2019-03-09T14:03:34.478Z,12.00
2019-03-09T14:06:04.653Z,12.00
2019-03-09T14:08:34.613Z,11.90
2019-03-09T14:11:04.860Z,11.90
2019-03-09T14:13:34.942Z,11.90
2019-03-09T14:16:05.024Z,12.00
2019-03-09T14:18:35.102Z,11.90
2019-03-09T14:21:05.291Z,11.90
2019-03-09T14:23:35.337Z,11.90
2019-03-09T14:26:05.476Z,11.90
2019-03-09T14:28:35.361Z,11.90
2019-03-09T14:31:05.542Z,11.90
2019-03-09T14:33:35.501Z,11.90
2019-03-09T14:36:06.251Z,11.80
2019-03-09T14:38:36.787Z,11.80
2019-03-09T14:41:07.334Z,11.80
2019-03-09T14:43:37.942Z,11.80
2019-03-09T14:46:08.456Z,11.80
2019-03-09T14:48:39.192Z,11.80
2019-03-09T14:51:09.516Z,11.80
2019-03-09T14:53:40.163Z,11.80
2019-03-09T14:56:10.771Z,11.80
2019-03-09T14:58:41.281Z,11.80
2019-03-09T15:01:11.738Z,11.80
2019-03-09T15:03:41.808Z,11.70
2019-03-09T15:06:11.849Z,11.70
2019-03-09T15:08:41.917Z,11.70
2019-03-09T15:11:11.693Z,11.70
2019-03-09T15:13:41.746Z,11.70
2019-03-09T15:16:11.725Z,11.70
2019-03-09T15:18:41.877Z,11.70
2019-03-09T15:21:11.861Z,11.70
2019-03-09T15:23:42.041Z,11.70
2019-03-09T15:26:12.093Z,11.70
2019-03-09T15:28:42.100Z,11.70
2019-03-09T15:31:12.130Z,11.70
2019-03-09T15:33:42.016Z,11.70
2019-03-09T15:36:12.057Z,11.70
2019-03-09T15:38:42.274Z,11.60
2019-03-09T15:41:12.594Z,11.70
2019-03-09T15:43:42.793Z,11.60
2019-03-09T15:46:12.969Z,11.70
2019-03-09T15:48:43.052Z,11.60
2019-03-09T15:51:13.085Z,11.60
2019-03-09T15:53:43.254Z,11.60
2019-03-09T15:56:13.361Z,11.60
2019-03-09T15:58:43.485Z,11.60
2019-03-09T16:01:13.653Z,11.60
2019-03-09T16:03:43.737Z,11.60
2019-03-09T16:06:13.796Z,11.60
2019-03-09T16:08:43.897Z,11.60
2019-03-09T16:11:13.934Z,11.60
2019-03-09T16:13:44.105Z,11.60
2019-03-09T16:16:14.084Z,11.60
2019-03-09T16:18:44.241Z,11.60
2019-03-09T16:21:14.118Z,11.60
2019-03-09T16:23:44.269Z,11.60
2019-03-09T16:26:14.354Z,11.60
2019-03-09T16:28:44.421Z,11.60
2019-03-09T16:31:14.485Z,11.60
2019-03-09T16:33:44.670Z,11.60
2019-03-09T16:36:14.629Z,11.60
2019-03-09T16:38:44.576Z,11.60
2019-03-09T16:41:15.216Z,11.60
2019-03-09T16:43:45.281Z,11.60
2019-03-09T16:46:15.249Z,11.60
2019-03-09T16:48:45.320Z,11.50
2019-03-09T16:51:15.398Z,11.60
2019-03-09T16:53:45.460Z,11.50
2019-03-09T16:56:15.553Z,11.60
2019-03-09T16:58:45.508Z,11.60
2019-03-09T17:01:15.658Z,11.50
2019-03-09T17:03:45.637Z,11.50
2019-03-09T17:06:15.807Z,11.50
2019-03-09T17:08:45.957Z,11.50
2019-03-09T17:11:16.145Z,11.50
2019-03-09T17:13:46.233Z,11.50
2019-03-09T17:16:16.379Z,11.50
2019-03-09T17:18:46.380Z,11.50
2019-03-09T17:21:16.328Z,11.50
2019-03-09T17:23:46.473Z,11.50
2019-03-09T17:26:16.553Z,11.50
2019-03-09T17:28:46.641Z,11.50
2019-03-09T17:31:16.793Z,11.50
2019-03-09T17:33:47.042Z,11.50
2019-03-09T17:36:17.221Z,11.50
2019-03-09T17:38:47.229Z,11.50
2019-03-09T17:41:17.285Z,11.50
2019-03-09T17:43:47.249Z,11.50
2019-03-09T17:46:17.392Z,11.50
2019-03-09T17:48:47.385Z,11.50
2019-03-09T17:51:17.457Z,11.50
2019-03-09T17:53:47.536Z,11.50
2019-03-09T17:56:17.577Z,11.50
2019-03-09T17:58:47.644Z,11.50
2019-03-09T18:01:17.720Z,11.50
2019-03-09T18:03:47.589Z,11.50
2019-03-09T18:06:17.783Z,11.50
2019-03-09T18:08:47.829Z,11.50
2019-03-09T18:11:17.980Z,11.50
2019-03-09T18:13:47.874Z,11.50
2019-03-09T18:16:18.009Z,11.40
2019-03-09T18:18:47.989Z,11.50
2019-03-09T18:21:18.141Z,11.50
2019-03-09T18:23:51.611Z,11.50
2019-03-09T18:26:24.175Z,11.50
2019-03-09T18:28:59.127Z,11.50
2019-03-09T18:31:31.861Z,11.50
2019-03-09T18:34:02.212Z,11.50
2019-03-09T18:36:32.489Z,11.40
2019-03-09T18:39:02.681Z,11.50
2019-03-09T18:41:32.648Z,11.50
2019-03-09T18:44:02.693Z,11.40
2019-03-09T18:46:33.013Z,11.40
2019-03-09T18:49:03.232Z,11.40
2019-03-09T18:51:33.269Z,11.40
2019-03-09T18:54:03.421Z,11.40
2019-03-09T18:56:33.821Z,11.40
2019-03-09T18:59:03.909Z,11.40
2019-03-09T19:01:34.056Z,11.40
2019-03-09T19:04:04.230Z,11.50
2019-03-09T19:06:34.282Z,11.50
2019-03-09T19:09:04.396Z,11.50
2019-03-09T19:11:34.370Z,11.50
2019-03-09T19:14:04.387Z,11.50
2019-03-09T19:16:34.452Z,11.50
2019-03-09T19:19:04.662Z,11.60
2019-03-09T19:21:34.696Z,11.60
2019-03-09T19:24:04.856Z,11.60
2019-03-09T19:26:34.841Z,11.60
2019-03-09T19:29:04.994Z,11.70
2019-03-09T19:31:35.117Z,11.70
2019-03-09T19:34:05.025Z,11.80
2019-03-09T19:36:35.103Z,11.80
2019-03-09T19:39:05.837Z,11.80
2019-03-09T19:41:35.881Z,11.80
2019-03-09T19:44:06.021Z,11.80
2019-03-09T19:46:36.098Z,11.90
2019-03-09T19:49:06.090Z,11.90
2019-03-09T19:51:36.151Z,11.90
2019-03-09T19:54:06.197Z,11.90
2019-03-09T19:56:36.408Z,12.00
2019-03-09T19:59:06.532Z,12.00
2019-03-09T20:01:36.694Z,12.00
2019-03-09T20:04:06.785Z,12.00
2019-03-09T20:06:36.870Z,12.00
2019-03-09T20:09:07.872Z,12.00
2019-03-09T20:11:37.900Z,12.10
2019-03-09T20:14:07.969Z,12.10
2019-03-09T20:16:37.831Z,12.10
2019-03-09T20:19:07.993Z,12.10
2019-03-09T20:21:38.062Z,12.10
2019-03-09T20:24:08.282Z,12.20
2019-03-09T20:26:38.213Z,12.20
2019-03-09T20:29:08.220Z,12.20
2019-03-09T20:31:38.393Z,12.20
2019-03-09T20:34:08.369Z,12.20
2019-03-09T20:36:38.551Z,12.20
2019-03-09T20:39:08.521Z,12.20
2019-03-09T20:41:38.568Z,12.20
2019-03-09T20:44:08.534Z,12.20
2019-03-09T20:46:41.956Z,12.20
2019-03-09T20:49:10.339Z,12.20
2019-03-09T20:51:40.478Z,12.20
2019-03-09T20:54:10.482Z,12.20
2019-03-09T20:56:40.608Z,12.20
2019-03-09T20:59:10.712Z,12.20
2019-03-09T21:01:40.781Z,12.10
2019-03-09T21:04:21.172Z,12.10
2019-03-09T21:06:51.161Z,12.10
2019-03-09T21:09:27.441Z,12.10
2019-03-09T21:12:04.030Z,12.00
2019-03-09T21:14:36.808Z,12.00
2019-03-09T21:17:15.303Z,12.00
2019-03-09T21:19:50.256Z,12.00
2019-03-09T21:22:35.739Z,11.90
2019-03-09T21:25:12.494Z,11.90
2019-03-09T21:27:47.347Z,11.90
2019-03-09T21:30:20.201Z,11.90
2019-03-09T21:32:55.753Z,11.90
2019-03-09T21:35:28.576Z,11.80
2019-03-09T21:37:59.711Z,11.80
2019-03-09T21:40:31.637Z,11.80
2019-03-09T21:43:02.626Z,11.80
2019-03-09T21:45:32.921Z,11.80
2019-03-09T21:48:03.107Z,11.80
2019-03-09T21:50:33.061Z,11.70
2019-03-09T21:53:03.124Z,11.70
2019-03-09T21:55:32.996Z,11.70
2019-03-09T21:58:03.270Z,11.70
2019-03-09T22:00:35.015Z,11.70
2019-03-09T22:03:05.135Z,11.70
2019-03-09T22:05:35.018Z,11.70
2019-03-09T22:08:05.155Z,11.70
2019-03-09T22:10:34.929Z,11.60
2019-03-09T22:13:05.092Z,11.60
2019-03-09T22:15:35.078Z,11.60
2019-03-09T22:18:05.225Z,11.60
2019-03-09T22:20:35.329Z,11.60
2019-03-09T22:23:05.285Z,11.60
2019-03-09T22:25:35.159Z,11.60
2019-03-09T22:28:05.343Z,11.60
2019-03-09T22:30:35.397Z,11.60
2019-03-09T22:33:05.533Z,11.60
2019-03-09T22:35:35.233Z,11.60
2019-03-09T22:38:05.386Z,11.50
2019-03-09T22:40:35.254Z,11.50
2019-03-09T22:43:05.405Z,11.50
2019-03-09T22:45:35.237Z,11.50
2019-03-09T22:48:05.225Z,11.50
2019-03-09T22:50:35.310Z,11.50
2019-03-09T22:53:05.361Z,11.50
2019-03-09T22:55:35.429Z,11.50
2019-03-09T22:58:05.411Z,11.50
2019-03-09T23:00:35.866Z,11.50
2019-03-09T23:03:06.213Z,11.40
2019-03-09T23:05:36.157Z,11.40
2019-03-09T23:08:05.833Z,11.40
2019-03-09T23:10:35.501Z,11.40
2019-03-09T23:13:05.218Z,11.40
2019-03-09T23:15:34.956Z,11.40
2019-03-09T23:18:04.641Z,11.40
2019-03-09T23:20:34.324Z,11.40
2019-03-09T23:23:04.351Z,11.40
2019-03-09T23:25:34.409Z,11.40
2019-03-09T23:28:04.386Z,11.40
2019-03-09T23:30:34.270Z,11.40
2019-03-09T23:33:04.326Z,11.40
2019-03-09T23:35:34.377Z,11.40
2019-03-09T23:38:04.458Z,11.30
2019-03-09T23:40:34.429Z,11.40
2019-03-09T23:43:04.576Z,11.30
2019-03-09T23:45:34.558Z,11.40
2019-03-09T23:48:04.817Z,11.30
2019-03-09T23:50:34.846Z,11.30
2019-03-09T23:53:04.733Z,11.30
2019-03-09T23:55:34.864Z,11.30
2019-03-09T23:58:04.592Z,11.30
